This is the latest recevied weather packets stored in our database for station/object DH1NAI-6. If no packets are shown the sender has not sent any weather packets the latest 1 day(s).
| Time | Temp. | Humidity | Pressure | Rain* | Wind** | Luminosity | Snow |
|---|---|---|---|---|---|---|---|
| 1777983139 | 18.89° C | 73% | 1006 hPa | 0 mm | 1.34 m/s, 335° | 164 W/m² | - |
| 1777982513 | 17.78° C | 76% | 1006.2 hPa | 0 mm | 0.89 m/s, 288° | 74 W/m² | - |
| 1777981906 | 17.78° C | 73% | 1006.2 hPa | 0 mm | 0.89 m/s, 313° | 46 W/m² | - |
| 1777981292 | 18.33° C | 71% | 1006.3 hPa | 0 mm | 1.79 m/s, 327° | 47 W/m² | - |
| 1777980673 | 18.33° C | 67% | 1006.2 hPa | 0 mm | 0.89 m/s, 156° | 37 W/m² | - |
| 1777980065 | 18.33° C | 68% | 1006.2 hPa | 0 mm | 0.89 m/s, 211° | 61 W/m² | - |
| 1777979457 | 18.89° C | 66% | 1006.1 hPa | 0 mm | 0 m/s | 73 W/m² | - |
| 1777978849 | 19.44° C | 67% | 1006.3 hPa | 0 mm | 0.45 m/s, 156° | 73 W/m² | - |
| 1777978225 | 18.33° C | 67% | 1006.3 hPa | 0 mm | 0.45 m/s, 139° | 70 W/m² | - |
| 1777977618 | 18.33° C | 69% | 1006.4 hPa | 0 mm | 0.45 m/s, 147° | 62 W/m² | - |
| 1777977009 | 18.89° C | 65% | 1006.6 hPa | 0 mm | 0.89 m/s, 40° | 187 W/m² | - |
| 1777976402 | 18.89° C | 71% | 1006.6 hPa | 0 mm | 0.89 m/s, 145° | 172 W/m² | - |
| 1777975793 | 18.33° C | 69% | 1006.8 hPa | 0 mm | 1.34 m/s, 166° | 176 W/m² | - |
| 1777975186 | 19.44° C | 72% | 1007 hPa | 0 mm | 1.34 m/s, 139° | 190 W/m² | - |
| 1777974572 | 18.89° C | 73% | 1006.8 hPa | 0 mm | 1.79 m/s, 137° | 194 W/m² | - |
| 1777973970 | 18.33° C | 73% | 1007 hPa | 0 mm | 0.45 m/s, 206° | 195 W/m² | - |
| 1777973361 | 17.78° C | 77% | 1007.1 hPa | 0 mm | 0.89 m/s, 143° | 202 W/m² | - |
| 1777972737 | 17.78° C | 78% | 1007 hPa | 0 mm | 1.79 m/s, 164° | 101 W/m² | - |
| 1777972113 | 17.78° C | 81% | 1007.2 hPa | 0 mm | 0.89 m/s, 181° | 156 W/m² | - |
| 1777971505 | 17.22° C | 82% | 1007.2 hPa | 0 mm | 0.45 m/s, 154° | 180 W/m² | - |
| 1777970898 | 17.22° C | 80% | 1007.4 hPa | 0 mm | 1.34 m/s, 137° | 178 W/m² | - |
| 1777970289 | 16.67° C | 85% | 1007.4 hPa | 0 mm | 0.89 m/s, 149° | 179 W/m² | - |
| 1777969682 | 16.11° C | 85% | 1007.3 hPa | 0 mm | 0 m/s | 151 W/m² | - |
| 1777969073 | 15° C | 88% | 1007.4 hPa | 0 mm | 0 m/s | 100 W/m² | - |
| 1777968466 | 14.44° C | 89% | 1007.5 hPa | 0 mm | 0.45 m/s, 151° | 82 W/m² | - |
* Rain latest hour (hover to see other rain measurements)
** Current wind speed in m/s (hover to see current wind gust speed)